createdAt,value
2022-09-25T00:05:01.485Z,0
2022-09-25T00:10:24.264Z,0
2022-09-25T00:15:49.994Z,0
2022-09-25T00:21:12.849Z,0
2022-09-25T00:26:38.282Z,0
2022-09-25T00:32:01.268Z,0
2022-09-25T00:37:24.223Z,0
2022-09-25T00:42:47.543Z,0
2022-09-25T00:48:10.343Z,0
2022-09-25T00:53:32.976Z,0
2022-09-25T00:58:58.758Z,0
2022-09-25T01:04:28.794Z,0
2022-09-25T01:09:52.006Z,0
2022-09-25T01:15:14.687Z,0
2022-09-25T01:20:37.426Z,0
2022-09-25T01:26:03.211Z,0
2022-09-25T01:36:48.949Z,0
2022-09-25T01:42:13.878Z,0
2022-09-25T01:47:36.919Z,0
2022-09-25T01:53:00.525Z,0
2022-09-25T01:58:23.362Z,0
2022-09-25T02:03:53.356Z,0
2022-09-25T02:09:16.173Z,0
2022-09-25T02:14:39.346Z,0
2022-09-25T02:20:01.819Z,0
2022-09-25T02:25:24.498Z,0
2022-09-25T02:30:46.975Z,0
2022-09-25T02:36:10.220Z,0
2022-09-25T02:41:33.021Z,0
2022-09-25T02:47:06.395Z,0
2022-09-25T02:52:28.600Z,0
2022-09-25T02:57:54.262Z,0
2022-09-25T03:14:08.252Z,0
2022-09-25T03:19:33.501Z,0
2022-09-25T03:24:56.030Z,0
2022-09-25T03:30:21.009Z,0
2022-09-25T03:35:43.708Z,0
2022-09-25T03:41:06.233Z,0
2022-09-25T03:46:29.314Z,0
2022-09-25T03:51:52.277Z,0
2022-09-25T03:57:17.301Z,0
2022-09-25T04:02:40.300Z,0
2022-09-25T04:08:05.694Z,0
2022-09-25T04:13:28.424Z,0
2022-09-25T04:18:53.772Z,0
2022-09-25T04:24:23.771Z,0
2022-09-25T04:29:46.415Z,0
2022-09-25T04:40:35.189Z,0
2022-09-25T04:45:58.131Z,0
2022-09-25T04:51:23.562Z,0
2022-09-25T05:02:09.419Z,0
2022-09-25T05:07:33.038Z,0
2022-09-25T05:12:56.041Z,3
2022-09-25T05:18:18.583Z,1
2022-09-25T05:23:41.442Z,8
2022-09-25T05:29:04.000Z,15.8
2022-09-25T05:34:29.246Z,14.2
2022-09-25T05:39:52.094Z,33.3
2022-09-25T05:45:14.671Z,39
2022-09-25T05:50:40.353Z,53.5
2022-09-25T05:56:03.631Z,77.7
2022-09-25T06:01:26.737Z,89.3
2022-09-25T06:06:49.677Z,113.8
2022-09-25T06:12:13.404Z,185.2
2022-09-25T06:17:36.585Z,185.5
2022-09-25T06:22:59.666Z,181.2
2022-09-25T06:28:22.256Z,157.5
2022-09-25T06:39:28.944Z,228.5
2022-09-25T06:44:52.160Z,191.2
2022-09-25T06:50:15.007Z,190
2022-09-25T07:01:21.993Z,222
2022-09-25T07:06:45.337Z,243
2022-09-25T07:12:08.127Z,229.2
2022-09-25T07:17:31.130Z,303.8
2022-09-25T07:22:54.470Z,248.7
2022-09-25T07:28:16.914Z,233.7
2022-09-25T07:33:44.729Z,181.1
2022-09-25T07:39:07.442Z,565
2022-09-25T07:44:38.731Z,573.1
2022-09-25T07:50:15.483Z,391.1
2022-09-25T07:55:38.938Z,262.1
2022-09-25T08:01:04.945Z,545.6
2022-09-25T08:06:27.859Z,2273.7
2022-09-25T08:11:50.960Z,558.7
2022-09-25T08:17:13.950Z,2014.6
2022-09-25T08:22:37.925Z,1951.1
2022-09-25T08:28:00.861Z,1774.7
2022-09-25T08:38:55.546Z,1804.2
2022-09-25T08:44:18.875Z,1666.1
2022-09-25T08:49:40.924Z,1285.4
2022-09-25T08:55:04.942Z,1192.1
2022-09-25T09:00:34.336Z,2012.7
2022-09-25T09:06:00.748Z,2083
2022-09-25T09:11:44.830Z,2353.2
2022-09-25T09:17:10.561Z,1896.1
2022-09-25T09:22:33.297Z,1805.7
2022-09-25T09:27:59.367Z,394.6
2022-09-25T09:33:23.318Z,1760.4
2022-09-25T09:38:47.742Z,617.1
2022-09-25T09:44:07.550Z,289
2022-09-25T09:49:33.304Z,2231.9
2022-09-25T09:54:57.122Z,2478.8
2022-09-25T10:00:21.769Z,2627.9
2022-09-25T10:05:46.920Z,461
2022-09-25T10:11:10.404Z,237.2
2022-09-25T10:16:30.635Z,387.6
2022-09-25T10:21:56.948Z,1878
2022-09-25T10:27:16.237Z,385.8
2022-09-25T10:32:38.083Z,323
2022-09-25T10:39:08.546Z,1799.7
2022-09-25T10:45:07.918Z,1985.9
2022-09-25T10:50:31.001Z,1959
2022-09-25T10:55:54.241Z,1879.9
2022-09-25T11:01:17.063Z,538.4
2022-09-25T11:06:37.330Z,695
2022-09-25T11:12:00.947Z,1111.2
2022-09-25T11:17:27.512Z,448.3
2022-09-25T11:28:04.756Z,480.6
2022-09-25T11:38:59.680Z,1798.4
2022-09-25T11:44:24.746Z,2020.9
2022-09-25T11:49:48.307Z,2142.9
2022-09-25T11:55:12.094Z,1908.4
2022-09-25T12:00:37.894Z,1374.8
2022-09-25T12:05:56.194Z,317.5
2022-09-25T12:16:48.360Z,2568
2022-09-25T12:22:14.974Z,758.9
2022-09-25T12:27:33.851Z,188.9
2022-09-25T12:32:57.205Z,1866.1
2022-09-25T12:38:23.578Z,2434.6
2022-09-25T12:43:46.847Z,2182.6
2022-09-25T12:49:14.406Z,1847.1
2022-09-25T12:54:39.521Z,1513.4
2022-09-25T13:00:02.836Z,1719.1
2022-09-25T13:05:25.438Z,415.9
2022-09-25T13:10:48.189Z,391.6
2022-09-25T13:16:08.697Z,585.8
2022-09-25T13:26:55.512Z,1395.4
2022-09-25T13:32:19.673Z,678.7
2022-09-25T13:37:45.569Z,1202
2022-09-25T13:43:08.350Z,1111.2
2022-09-25T13:48:30.925Z,1402.2
2022-09-25T13:53:53.607Z,1486.6
2022-09-25T13:59:16.338Z,1363.3
2022-09-25T14:04:38.762Z,1433.9
2022-09-25T14:10:01.150Z,1376.8
2022-09-25T14:15:25.514Z,1641.1
2022-09-25T14:20:51.465Z,1494.1
2022-09-25T14:26:13.431Z,1434.1
2022-09-25T14:31:37.470Z,1272.2
2022-09-25T14:37:03.174Z,1153.7
2022-09-25T14:42:26.039Z,1200.5
2022-09-25T14:47:48.636Z,1022.8
2022-09-25T14:53:11.107Z,1093
2022-09-25T14:58:38.809Z,167.4
2022-09-25T15:04:03.306Z,134
2022-09-25T15:09:25.221Z,121.8
2022-09-25T15:14:47.827Z,95.9
2022-09-25T15:20:13.170Z,134.7
2022-09-25T15:25:38.482Z,110.3
2022-09-25T15:31:08.238Z,94.8
2022-09-25T15:36:34.388Z,86.6
2022-09-25T15:41:56.623Z,77.9
2022-09-25T15:47:19.266Z,71.9
2022-09-25T15:52:41.998Z,66.6
2022-09-25T15:58:08.160Z,62.6
2022-09-25T16:03:38.114Z,58.9
2022-09-25T16:09:00.562Z,50
2022-09-25T16:14:23.439Z,71.1
2022-09-25T16:21:03.490Z,66.1
2022-09-25T16:26:27.323Z,62
2022-09-25T16:31:50.097Z,54.7
2022-09-25T16:37:12.777Z,39.2
2022-09-25T16:48:39.969Z,34.1
2022-09-25T16:54:07.343Z,30.3
2022-09-25T16:59:33.184Z,28.5
2022-09-25T17:04:55.770Z,27.9
2022-09-25T17:10:21.413Z,17.8
2022-09-25T17:15:48.626Z,17.9
2022-09-25T17:21:11.344Z,14.8
2022-09-25T17:26:33.589Z,4.8
2022-09-25T17:31:55.880Z,3
2022-09-25T17:37:27.546Z,0
2022-09-25T17:42:52.882Z,0
2022-09-25T17:48:18.211Z,0
2022-09-25T17:53:40.965Z,0
2022-09-25T17:59:03.358Z,0
2022-09-25T18:04:26.045Z,0
2022-09-25T18:09:48.606Z,0
2022-09-25T18:15:10.985Z,0
2022-09-25T18:20:33.535Z,0
2022-09-25T18:25:55.854Z,0
2022-09-25T18:37:05.304Z,0
2022-09-25T18:42:27.663Z,0
2022-09-25T18:47:50.523Z,0
2022-09-25T18:53:16.245Z,0
2022-09-25T18:58:38.894Z,0
2022-09-25T19:04:01.459Z,0
2022-09-25T19:09:31.844Z,0
2022-09-25T19:14:54.489Z,0
2022-09-25T19:20:20.431Z,0
2022-09-25T19:25:43.440Z,0
2022-09-25T19:31:06.116Z,0
2022-09-25T19:36:28.643Z,0
2022-09-25T19:41:50.957Z,0
2022-09-25T19:47:14.407Z,0
2022-09-25T19:52:36.818Z,0
2022-09-25T19:58:02.898Z,0
2022-09-25T20:03:25.975Z,0
2022-09-25T20:08:48.722Z,0
2022-09-25T20:14:11.485Z,0
2022-09-25T20:19:57.033Z,0
2022-09-25T20:36:08.877Z,0
2022-09-25T20:41:34.079Z,0
2022-09-25T20:46:56.806Z,0
2022-09-25T20:52:19.630Z,0
2022-09-25T20:57:42.039Z,0
2022-09-25T21:03:05.012Z,0
2022-09-25T21:08:28.276Z,0
2022-09-25T21:14:05.901Z,0
2022-09-25T21:19:28.661Z,0
2022-09-25T21:24:53.731Z,0
2022-09-25T21:30:16.365Z,0
2022-09-25T21:35:40.035Z,0
2022-09-25T21:41:05.562Z,0
2022-09-25T21:46:28.710Z,0
2022-09-25T21:51:51.700Z,0
2022-09-25T21:57:14.221Z,0
2022-09-25T22:02:37.187Z,0
2022-09-25T22:07:59.758Z,0
2022-09-25T22:18:46.017Z,0
2022-09-25T22:24:08.491Z,0
2022-09-25T22:35:03.447Z,0
2022-09-25T22:40:26.182Z,0
2022-09-25T22:45:49.258Z,0
2022-09-25T22:51:12.018Z,0
2022-09-25T22:56:34.669Z,0
2022-09-25T23:01:57.768Z,0
2022-09-25T23:07:20.279Z,0
2022-09-25T23:12:46.767Z,0
2022-09-25T23:18:10.697Z,0
2022-09-25T23:23:33.757Z,0
2022-09-25T23:28:56.627Z,0
2022-09-25T23:34:19.781Z,0
2022-09-25T23:39:42.762Z,0
2022-09-25T23:45:05.435Z,0
2022-09-25T23:50:28.419Z,0
2022-09-25T23:55:51.094Z,0
